sensor_id;sensor_type;location;lat;lon;timestamp;pressure;altitude;pressure_sealevel;temperature;humidity
71195;BME280;58908;51.426;7.714;2023-04-06T00:02:10;100029.59;;;0.06;100.00
71195;BME280;58908;51.426;7.714;2023-04-06T00:04:36;100027.03;;;0.00;100.00
71195;BME280;58908;51.426;7.714;2023-04-06T00:07:02;100026.22;;;-0.02;100.00
71195;BME280;58908;51.426;7.714;2023-04-06T00:09:29;100023.66;;;-0.06;100.00
71195;BME280;58908;51.426;7.714;2023-04-06T00:11:55;100031.44;;;-0.08;100.00
71195;BME280;58908;51.426;7.714;2023-04-06T00:14:22;100027.19;;;-0.11;100.00
71195;BME280;58908;51.426;7.714;2023-04-06T00:16:50;100030.59;;;-0.08;100.00
71195;BME280;58908;51.426;7.714;2023-04-06T00:19:16;100022.88;;;-0.14;100.00
71195;BME280;58908;51.426;7.714;2023-04-06T00:21:43;100030.69;;;-0.18;100.00
71195;BME280;58908;51.426;7.714;2023-04-06T00:24:09;100018.59;;;-0.16;100.00
71195;BME280;58908;51.426;7.714;2023-04-06T00:26:35;100021.38;;;-0.36;100.00
71195;BME280;58908;51.426;7.714;2023-04-06T00:29:02;100020.66;;;-0.51;100.00
71195;BME280;58908;51.426;7.714;2023-04-06T00:31:28;100018.94;;;-0.51;100.00
71195;BME280;58908;51.426;7.714;2023-04-06T00:33:56;100012.00;;;-0.47;100.00
71195;BME280;58908;51.426;7.714;2023-04-06T00:36:22;100014.59;;;-0.50;100.00
71195;BME280;58908;51.426;7.714;2023-04-06T00:38:48;100014.63;;;-0.53;100.00
71195;BME280;58908;51.426;7.714;2023-04-06T00:41:15;100009.44;;;-0.53;100.00
71195;BME280;58908;51.426;7.714;2023-04-06T00:43:41;100004.25;;;-0.52;100.00
71195;BME280;58908;51.426;7.714;2023-04-06T00:46:07;100009.47;;;-0.55;100.00
71195;BME280;58908;51.426;7.714;2023-04-06T00:48:34;100003.44;;;-0.55;100.00
71195;BME280;58908;51.426;7.714;2023-04-06T00:51:01;99991.44;;;-0.65;100.00
71195;BME280;58908;51.426;7.714;2023-04-06T00:53:28;99996.63;;;-0.68;100.00
71195;BME280;58908;51.426;7.714;2023-04-06T00:55:54;99989.72;;;-0.66;100.00
71195;BME280;58908;51.426;7.714;2023-04-06T00:58:20;99987.97;;;-0.64;100.00
71195;BME280;58908;51.426;7.714;2023-04-06T01:00:47;99991.47;;;-0.70;100.00
71195;BME280;58908;51.426;7.714;2023-04-06T01:03:13;99988.06;;;-0.75;100.00
71195;BME280;58908;51.426;7.714;2023-04-06T01:05:39;99978.50;;;-0.68;100.00
71195;BME280;58908;51.426;7.714;2023-04-06T01:08:08;99971.59;;;-0.66;100.00
71195;BME280;58908;51.426;7.714;2023-04-06T01:10:35;99968.16;;;-0.70;100.00
71195;BME280;58908;51.426;7.714;2023-04-06T01:13:01;99976.66;;;-0.54;100.00
71195;BME280;58908;51.426;7.714;2023-04-06T01:15:27;99969.72;;;-0.51;100.00
71195;BME280;58908;51.426;7.714;2023-04-06T01:17:54;99970.50;;;-0.46;100.00
71195;BME280;58908;51.426;7.714;2023-04-06T01:20:20;99966.19;;;-0.47;100.00
71195;BME280;58908;51.426;7.714;2023-04-06T01:22:48;99964.44;;;-0.45;100.00
71195;BME280;58908;51.426;7.714;2023-04-06T01:25:14;99954.09;;;-0.45;100.00
71195;BME280;58908;51.426;7.714;2023-04-06T01:27:41;99955.84;;;-0.44;100.00
71195;BME280;58908;51.426;7.714;2023-04-06T01:30:07;99952.50;;;-0.56;100.00
71195;BME280;58908;51.426;7.714;2023-04-06T01:32:34;99945.53;;;-0.51;100.00
71195;BME280;58908;51.426;7.714;2023-04-06T01:35:00;99951.34;;;-0.30;100.00
71195;BME280;58908;51.426;7.714;2023-04-06T01:37:26;99942.59;;;-0.20;100.00
71195;BME280;58908;51.426;7.714;2023-04-06T01:39:56;99950.38;;;-0.21;100.00
71195;BME280;58908;51.426;7.714;2023-04-06T01:42:22;99941.97;;;-0.41;100.00
71195;BME280;58908;51.426;7.714;2023-04-06T01:44:49;99942.00;;;-0.46;100.00
71195;BME280;58908;51.426;7.714;2023-04-06T01:47:15;99942.97;;;-0.54;100.00
71195;BME280;58908;51.426;7.714;2023-04-06T01:49:42;99935.13;;;-0.45;100.00
71195;BME280;58908;51.426;7.714;2023-04-06T01:52:08;99927.44;;;-0.54;100.00
71195;BME280;58908;51.426;7.714;2023-04-06T01:54:34;99936.88;;;-0.50;100.00
71195;BME280;58908;51.426;7.714;2023-04-06T01:57:02;99931.78;;;-0.55;100.00
71195;BME280;58908;51.426;7.714;2023-04-06T01:59:28;99930.06;;;-0.59;100.00
71195;BME280;58908;51.426;7.714;2023-04-06T02:01:55;99936.81;;;-0.46;100.00
71195;BME280;58908;51.426;7.714;2023-04-06T02:04:21;99929.94;;;-0.47;100.00
71195;BME280;58908;51.426;7.714;2023-04-06T02:06:47;99923.91;;;-0.49;100.00
71195;BME280;58908;51.426;7.714;2023-04-06T02:09:13;99925.69;;;-0.52;100.00
71195;BME280;58908;51.426;7.714;2023-04-06T02:11:40;99929.94;;;-0.45;100.00
71195;BME280;58908;51.426;7.714;2023-04-06T02:14:08;99922.91;;;-0.33;100.00
71195;BME280;58908;51.426;7.714;2023-04-06T02:16:34;99928.19;;;-0.43;100.00
71195;BME280;58908;51.426;7.714;2023-04-06T02:19:00;99925.50;;;-0.34;100.00
71195;BME280;58908;51.426;7.714;2023-04-06T02:21:27;99931.56;;;-0.35;100.00
71195;BME280;58908;51.426;7.714;2023-04-06T02:23:53;99937.56;;;-0.32;100.00
71195;BME280;58908;51.426;7.714;2023-04-06T02:26:20;99930.63;;;-0.30;100.00
71195;BME280;58908;51.426;7.714;2023-04-06T02:28:46;99932.56;;;-0.50;100.00
71195;BME280;58908;51.426;7.714;2023-04-06T02:31:13;99935.16;;;-0.50;100.00
71195;BME280;58908;51.426;7.714;2023-04-06T02:33:40;99932.53;;;-0.47;100.00
71195;BME280;58908;51.426;7.714;2023-04-06T02:36:07;99927.34;;;-0.47;100.00
71195;BME280;58908;51.426;7.714;2023-04-06T02:38:33;99923.03;;;-0.46;100.00
71195;BME280;58908;51.426;7.714;2023-04-06T02:40:59;99928.47;;;-0.72;100.00
71195;BME280;58908;51.426;7.714;2023-04-06T02:43:26;99928.47;;;-0.73;100.00
71195;BME280;58908;51.426;7.714;2023-04-06T02:45:52;99933.66;;;-0.70;100.00
71195;BME280;58908;51.426;7.714;2023-04-06T02:48:19;99927.59;;;-0.69;100.00
71195;BME280;58908;51.426;7.714;2023-04-06T02:50:46;99924.94;;;-0.63;100.00
71195;BME280;58908;51.426;7.714;2023-04-06T02:53:12;99920.63;;;-0.63;100.00
71195;BME280;58908;51.426;7.714;2023-04-06T02:55:38;99930.03;;;-0.54;100.00
71195;BME280;58908;51.426;7.714;2023-04-06T02:58:05;99929.94;;;-0.47;100.00
71195;BME280;58908;51.426;7.714;2023-04-06T03:00:31;99924.78;;;-0.50;100.00
71195;BME280;58908;51.426;7.714;2023-04-06T03:02:57;99923.03;;;-0.48;100.00
71195;BME280;58908;51.426;7.714;2023-04-06T03:05:25;99923.13;;;-0.55;100.00
71195;BME280;58908;51.426;7.714;2023-04-06T03:07:51;99924.88;;;-0.57;100.00
71195;BME280;58908;51.426;7.714;2023-04-06T03:10:17;99918.06;;;-0.67;100.00
71195;BME280;58908;51.426;7.714;2023-04-06T03:12:44;99924.09;;;-0.67;100.00
71195;BME280;58908;51.426;7.714;2023-04-06T03:15:10;99927.63;;;-0.74;100.00
71195;BME280;58908;51.426;7.714;2023-04-06T03:17:36;99926.78;;;-0.77;100.00
71195;BME280;58908;51.426;7.714;2023-04-06T03:20:03;99924.28;;;-0.86;100.00
71195;BME280;58908;51.426;7.714;2023-04-06T03:22:31;99920.88;;;-0.90;100.00
71195;BME280;58908;51.426;7.714;2023-04-06T03:24:57;99926.91;;;-0.91;100.00
71195;BME280;58908;51.426;7.714;2023-04-06T03:27:23;99920.97;;;-0.99;100.00
71195;BME280;58908;51.426;7.714;2023-04-06T03:29:50;99921.78;;;-0.94;100.00
71195;BME280;58908;51.426;7.714;2023-04-06T03:32:16;99925.25;;;-0.95;100.00
71195;BME280;58908;51.426;7.714;2023-04-06T03:34:42;99922.66;;;-0.96;100.00
71195;BME280;58908;51.426;7.714;2023-04-06T03:37:08;99921.00;;;-1.03;100.00
71195;BME280;58908;51.426;7.714;2023-04-06T03:39:36;99925.25;;;-0.95;100.00
71195;BME280;58908;51.426;7.714;2023-04-06T03:42:02;99917.56;;;-1.05;100.00
71195;BME280;58908;51.426;7.714;2023-04-06T03:44:29;99922.69;;;-0.98;100.00
71195;BME280;58908;51.426;7.714;2023-04-06T03:46:55;99917.47;;;-0.95;100.00
71195;BME280;58908;51.426;7.714;2023-04-06T03:49:21;99913.16;;;-0.97;100.00
71195;BME280;58908;51.426;7.714;2023-04-06T03:51:47;99916.59;;;-0.94;100.00
71195;BME280;58908;51.426;7.714;2023-04-06T03:54:14;99918.88;;;-0.59;100.00
71195;BME280;58908;51.426;7.714;2023-04-06T03:56:42;99918.69;;;-0.44;100.00
71195;BME280;58908;51.426;7.714;2023-04-06T03:59:08;99919.63;;;-0.51;100.00
71195;BME280;58908;51.426;7.714;2023-04-06T04:01:34;99928.47;;;-0.70;100.00
71195;BME280;58908;51.426;7.714;2023-04-06T04:04:00;99916.34;;;-0.68;100.00
71195;BME280;58908;51.426;7.714;2023-04-06T04:06:27;99925.66;;;-0.51;100.00
71195;BME280;58908;51.426;7.714;2023-04-06T04:08:53;99923.25;;;-0.67;100.00
71195;BME280;58908;51.426;7.714;2023-04-06T04:11:19;99924.28;;;-0.86;100.00
71195;BME280;58908;51.426;7.714;2023-04-06T04:13:47;99922.53;;;-0.81;100.00
71195;BME280;58908;51.426;7.714;2023-04-06T04:16:13;99923.13;;;-0.57;100.00
71195;BME280;58908;51.426;7.714;2023-04-06T04:18:39;99911.97;;;-0.63;100.00
71195;BME280;58908;51.426;7.714;2023-04-06T04:21:08;99927.69;;;-0.80;100.00
71195;BME280;58908;51.426;7.714;2023-04-06T04:23:35;99922.56;;;-0.86;100.00
71195;BME280;58908;51.426;7.714;2023-04-06T04:26:01;99929.31;;;-0.70;100.00
71195;BME280;58908;51.426;7.714;2023-04-06T04:28:27;99925.09;;;-0.78;100.00
71195;BME280;58908;51.426;7.714;2023-04-06T04:30:55;99929.44;;;-0.82;100.00
71195;BME280;58908;51.426;7.714;2023-04-06T04:33:21;99930.25;;;-0.77;100.00
71195;BME280;58908;51.426;7.714;2023-04-06T04:35:47;99935.53;;;-0.86;100.00
71195;BME280;58908;51.426;7.714;2023-04-06T04:38:14;99926.91;;;-0.88;100.00
71195;BME280;58908;51.426;7.714;2023-04-06T04:40:40;99928.56;;;-0.79;100.00
71195;BME280;58908;51.426;7.714;2023-04-06T04:43:07;99928.59;;;-0.84;100.00
71195;BME280;58908;51.426;7.714;2023-04-06T04:45:33;99928.59;;;-0.85;100.00
71195;BME280;58908;51.426;7.714;2023-04-06T04:48:00;99928.75;;;-0.99;100.00
71195;BME280;58908;51.426;7.714;2023-04-06T04:50:27;99933.22;;;-1.19;100.00
71195;BME280;58908;51.426;7.714;2023-04-06T04:52:53;99923.72;;;-1.21;100.00
71195;BME280;58908;51.426;7.714;2023-04-06T04:55:19;99934.16;;;-1.30;100.00
71195;BME280;58908;51.426;7.714;2023-04-06T04:57:45;99932.47;;;-1.33;100.00
71195;BME280;58908;51.426;7.714;2023-04-06T05:00:12;99917.84;;;-1.38;100.00
71195;BME280;58908;51.426;7.714;2023-04-06T05:02:38;99926.44;;;-1.38;100.00
71195;BME280;58908;51.426;7.714;2023-04-06T05:05:07;99922.09;;;-1.36;100.00
71195;BME280;58908;51.426;7.714;2023-04-06T05:07:34;99921.28;;;-1.36;100.00
71195;BME280;58908;51.426;7.714;2023-04-06T05:10:00;99920.44;;;-1.38;100.00
71195;BME280;58908;51.426;7.714;2023-04-06T05:12:26;99926.41;;;-1.35;100.00
71195;BME280;58908;51.426;7.714;2023-04-06T05:14:53;99920.34;;;-1.26;100.00
71195;BME280;58908;51.426;7.714;2023-04-06T05:17:19;99924.66;;;-1.30;100.00
71195;BME280;58908;51.426;7.714;2023-04-06T05:19:46;99924.59;;;-1.24;100.00
71195;BME280;58908;51.426;7.714;2023-04-06T05:22:13;99920.25;;;-1.14;100.00
71195;BME280;58908;51.426;7.714;2023-04-06T05:24:42;99916.81;;;-1.18;100.00
71195;BME280;58908;51.426;7.714;2023-04-06T05:27:08;99917.63;;;-1.11;100.00
71195;BME280;58908;51.426;7.714;2023-04-06T05:29:38;99914.16;;;-1.09;100.00
71195;BME280;58908;51.426;7.714;2023-04-06T05:32:04;99914.19;;;-1.15;100.00
71195;BME280;58908;51.426;7.714;2023-04-06T05:34:31;99915.91;;;-1.12;100.00
71195;BME280;58908;51.426;7.714;2023-04-06T05:36:57;99921.06;;;-1.11;100.00
71195;BME280;58908;51.426;7.714;2023-04-06T05:39:25;99917.59;;;-1.08;100.00
71195;BME280;58908;51.426;7.714;2023-04-06T05:41:51;99915.00;;;-1.05;100.00
71195;BME280;58908;51.426;7.714;2023-04-06T05:44:17;99920.13;;;-1.02;100.00
71195;BME280;58908;51.426;7.714;2023-04-06T05:46:44;99919.28;;;-1.07;100.00
71195;BME280;58908;51.426;7.714;2023-04-06T05:49:10;99913.25;;;-1.06;100.00
71195;BME280;58908;51.426;7.714;2023-04-06T05:51:37;99914.00;;;-0.95;100.00
71195;BME280;58908;51.426;7.714;2023-04-06T05:54:03;99913.97;;;-0.91;100.00
71195;BME280;58908;51.426;7.714;2023-04-06T05:56:31;99915.69;;;-0.88;100.00
71195;BME280;58908;51.426;7.714;2023-04-06T05:58:57;99918.19;;;-0.79;100.00
71195;BME280;58908;51.426;7.714;2023-04-06T06:01:24;99915.53;;;-0.72;100.00
71195;BME280;58908;51.426;7.714;2023-04-06T06:03:50;99915.47;;;-0.67;100.00
71195;BME280;58908;51.426;7.714;2023-04-06T06:06:16;99911.94;;;-0.59;100.00
71195;BME280;58908;51.426;7.714;2023-04-06T06:08:42;99913.56;;;-0.49;100.00
71195;BME280;58908;51.426;7.714;2023-04-06T06:11:09;99914.34;;;-0.41;100.00
71195;BME280;58908;51.426;7.714;2023-04-06T06:13:36;99920.22;;;-0.27;100.00
71195;BME280;58908;51.426;7.714;2023-04-06T06:16:03;99926.09;;;-0.11;100.00
71195;BME280;58908;51.426;7.714;2023-04-06T06:18:30;99912.97;;;-0.01;100.00
71195;BME280;58908;51.426;7.714;2023-04-06T06:20:56;99909.28;;;0.19;100.00
71195;BME280;58908;51.426;7.714;2023-04-06T06:23:22;99906.84;;;0.65;100.00
71195;BME280;58908;51.426;7.714;2023-04-06T06:25:49;99901.13;;;1.89;100.00
71195;BME280;58908;51.426;7.714;2023-04-06T06:28:15;99898.72;;;3.30;97.89
71195;BME280;58908;51.426;7.714;2023-04-06T06:30:42;99887.38;;;4.51;87.41
71195;BME280;58908;51.426;7.714;2023-04-06T06:33:09;99885.50;;;5.08;78.63
71195;BME280;58908;51.426;7.714;2023-04-06T06:35:35;99887.63;;;5.23;73.70
71195;BME280;58908;51.426;7.714;2023-04-06T06:38:02;99887.13;;;5.62;69.48
71195;BME280;58908;51.426;7.714;2023-04-06T06:40:28;99882.09;;;5.56;67.50
71195;BME280;58908;51.426;7.714;2023-04-06T06:42:54;99881.59;;;6.40;66.60
71195;BME280;58908;51.426;7.714;2023-04-06T06:45:20;99872.00;;;6.62;63.86
71195;BME280;58908;51.426;7.714;2023-04-06T06:47:48;99885.28;;;7.20;62.98
71195;BME280;58908;51.426;7.714;2023-04-06T06:50:16;99875.94;;;7.35;62.24
71195;BME280;58908;51.426;7.714;2023-04-06T06:52:43;99875.56;;;7.03;63.19
71195;BME280;58908;51.426;7.714;2023-04-06T06:55:09;99879.03;;;6.39;67.09
71195;BME280;58908;51.426;7.714;2023-04-06T06:57:36;99879.84;;;6.18;65.78
71195;BME280;58908;51.426;7.714;2023-04-06T07:00:03;99876.66;;;7.38;63.82
71195;BME280;58908;51.426;7.714;2023-04-06T07:02:30;99866.09;;;6.98;64.26
71195;BME280;58908;51.426;7.714;2023-04-06T07:04:57;99860.03;;;8.16;61.64
71195;BME280;58908;51.426;7.714;2023-04-06T07:07:24;99858.09;;;8.01;59.27
71195;BME280;58908;51.426;7.714;2023-04-06T07:09:50;99848.00;;;8.66;58.81
71195;BME280;58908;51.426;7.714;2023-04-06T07:12:17;99850.75;;;9.34;56.73
71195;BME280;58908;51.426;7.714;2023-04-06T07:14:43;99852.81;;;9.11;55.85
71195;BME280;58908;51.426;7.714;2023-04-06T07:17:09;99850.47;;;8.88;55.54
71195;BME280;58908;51.426;7.714;2023-04-06T07:19:36;99849.81;;;9.01;55.65
71195;BME280;58908;51.426;7.714;2023-04-06T07:22:03;99846.69;;;10.10;53.61
71195;BME280;58908;51.426;7.714;2023-04-06T07:24:30;99840.59;;;10.72;48.12
71195;BME280;58908;51.426;7.714;2023-04-06T07:26:57;99832.72;;;11.01;45.97
71195;BME280;58908;51.426;7.714;2023-04-06T07:29:23;99837.91;;;11.18;46.03
71195;BME280;58908;51.426;7.714;2023-04-06T07:31:49;99820.78;;;11.83;44.65
71195;BME280;58908;51.426;7.714;2023-04-06T07:34:16;99823.63;;;11.80;43.54
71195;BME280;58908;51.426;7.714;2023-04-06T07:36:42;99825.78;;;12.01;42.57
71195;BME280;58908;51.426;7.714;2023-04-06T07:39:10;99824.06;;;11.58;42.31
71195;BME280;58908;51.426;7.714;2023-04-06T07:41:36;99823.59;;;11.66;42.49
71195;BME280;58908;51.426;7.714;2023-04-06T07:44:03;99822.84;;;11.64;42.07
71195;BME280;58908;51.426;7.714;2023-04-06T07:46:29;99818.06;;;11.11;41.88
71195;BME280;58908;51.426;7.714;2023-04-06T07:48:56;99820.00;;;10.78;43.07
71195;BME280;58908;51.426;7.714;2023-04-06T07:51:22;99818.63;;;10.87;43.42
71195;BME280;58908;51.426;7.714;2023-04-06T07:53:49;99813.22;;;10.74;43.55
71195;BME280;58908;51.426;7.714;2023-04-06T07:56:17;99817.38;;;10.63;42.89
71195;BME280;58908;51.426;7.714;2023-04-06T07:58:43;99807.69;;;11.08;42.91
71195;BME280;58908;51.426;7.714;2023-04-06T08:01:10;99813.19;;;10.90;43.28
71195;BME280;58908;51.426;7.714;2023-04-06T08:03:36;99812.25;;;12.19;42.24
71195;BME280;58908;51.426;7.714;2023-04-06T08:06:03;99800.56;;;12.90;40.63
71195;BME280;58908;51.426;7.714;2023-04-06T08:08:30;99810.66;;;13.37;39.36
71195;BME280;58908;51.426;7.714;2023-04-06T08:10:56;99808.38;;;12.65;39.82
71195;BME280;58908;51.426;7.714;2023-04-06T08:13:24;99812.59;;;12.82;41.22
71195;BME280;58908;51.426;7.714;2023-04-06T08:15:50;99811.22;;;13.42;39.84
71195;BME280;58908;51.426;7.714;2023-04-06T08:18:18;99805.31;;;13.12;39.16
71195;BME280;58908;51.426;7.714;2023-04-06T08:20:44;99811.31;;;13.65;39.15
71195;BME280;58908;51.426;7.714;2023-04-06T08:23:11;99818.00;;;13.33;39.74
71195;BME280;58908;51.426;7.714;2023-04-06T08:25:37;99811.69;;;13.22;39.84
71195;BME280;58908;51.426;7.714;2023-04-06T08:28:03;99807.59;;;13.43;39.92
71195;BME280;58908;51.426;7.714;2023-04-06T08:30:31;99811.72;;;14.93;37.04
71195;BME280;58908;51.426;7.714;2023-04-06T08:32:57;99807.50;;;14.67;38.42
71195;BME280;58908;51.426;7.714;2023-04-06T08:35:24;99800.75;;;14.51;37.97
71195;BME280;58908;51.426;7.714;2023-04-06T08:37:50;99805.97;;;14.40;37.17
71195;BME280;58908;51.426;7.714;2023-04-06T08:40:16;99808.59;;;14.17;38.50
71195;BME280;58908;51.426;7.714;2023-04-06T08:42:44;99815.06;;;14.25;37.35
71195;BME280;58908;51.426;7.714;2023-04-06T08:45:15;99810.72;;;14.60;38.62
71195;BME280;58908;51.426;7.714;2023-04-06T08:47:44;99807.31;;;15.63;37.22
71195;BME280;58908;51.426;7.714;2023-04-06T08:50:10;99808.09;;;14.83;36.83
71195;BME280;58908;51.426;7.714;2023-04-06T08:52:37;99808.16;;;15.29;38.18
71195;BME280;58908;51.426;7.714;2023-04-06T08:55:04;99804.81;;;15.14;36.00
71195;BME280;58908;51.426;7.714;2023-04-06T08:57:30;99804.75;;;15.50;37.13
71195;BME280;58908;51.426;7.714;2023-04-06T08:59:57;99797.44;;;16.09;34.67
71195;BME280;58908;51.426;7.714;2023-04-06T09:02:26;99800.72;;;16.45;34.04
71195;BME280;58908;51.426;7.714;2023-04-06T09:04:54;99796.00;;;16.27;33.60
71195;BME280;58908;51.426;7.714;2023-04-06T09:07:20;99798.59;;;15.50;35.76
71195;BME280;58908;51.426;7.714;2023-04-06T09:09:47;99792.72;;;16.01;35.19
71195;BME280;58908;51.426;7.714;2023-04-06T09:12:21;99794.66;;;15.88;36.01
71195;BME280;58908;51.426;7.714;2023-04-06T09:14:48;99791.41;;;16.29;34.90
71195;BME280;58908;51.426;7.714;2023-04-06T09:17:19;99787.16;;;16.37;35.24
71195;BME280;58908;51.426;7.714;2023-04-06T09:19:46;99787.34;;;16.78;34.30
71195;BME280;58908;51.426;7.714;2023-04-06T09:22:13;99788.16;;;16.90;33.06
71195;BME280;58908;51.426;7.714;2023-04-06T09:24:41;99786.94;;;15.85;34.32
71195;BME280;58908;51.426;7.714;2023-04-06T09:27:07;99792.25;;;15.96;33.57
71195;BME280;58908;51.426;7.714;2023-04-06T09:29:33;99789.25;;;16.12;35.29
71195;BME280;58908;51.426;7.714;2023-04-06T09:32:02;99774.59;;;16.28;33.47
71195;BME280;58908;51.426;7.714;2023-04-06T09:34:28;99783.31;;;14.59;35.27
71195;BME280;58908;51.426;7.714;2023-04-06T09:36:55;99781.47;;;15.87;35.95
71195;BME280;58908;51.426;7.714;2023-04-06T09:39:22;99773.75;;;16.39;33.36
71195;BME280;58908;51.426;7.714;2023-04-06T09:41:50;99788.88;;;15.14;35.76
71195;BME280;58908;51.426;7.714;2023-04-06T09:44:16;99782.09;;;16.01;34.19
71195;BME280;58908;51.426;7.714;2023-04-06T09:46:43;99776.03;;;15.88;33.02
71195;BME280;58908;51.426;7.714;2023-04-06T09:49:10;99772.44;;;16.76;31.97
71195;BME280;58908;51.426;7.714;2023-04-06T09:51:37;99769.78;;;16.76;31.64
71195;BME280;58908;51.426;7.714;2023-04-06T09:54:04;99777.59;;;15.58;33.88
71195;BME280;58908;51.426;7.714;2023-04-06T09:56:33;99767.69;;;16.04;32.46
71195;BME280;58908;51.426;7.714;2023-04-06T09:59:13;99765.84;;;16.48;33.69
71195;BME280;58908;51.426;7.714;2023-04-06T10:01:40;99771.34;;;15.35;33.44
71195;BME280;58908;51.426;7.714;2023-04-06T10:04:09;99777.22;;;14.70;34.96
71195;BME280;58908;51.426;7.714;2023-04-06T10:06:39;99772.38;;;14.28;33.81
71195;BME280;58908;51.426;7.714;2023-04-06T10:09:06;99767.94;;;14.29;35.32
71195;BME280;58908;51.426;7.714;2023-04-06T10:11:35;99771.31;;;14.31;34.96
71195;BME280;58908;51.426;7.714;2023-04-06T10:14:01;99769.94;;;14.61;35.07
71195;BME280;58908;51.426;7.714;2023-04-06T10:16:28;99775.88;;;14.64;36.17
71195;BME280;58908;51.426;7.714;2023-04-06T10:18:56;99763.84;;;14.36;34.71
71195;BME280;58908;51.426;7.714;2023-04-06T10:21:24;99771.19;;;14.68;36.61
71195;BME280;58908;51.426;7.714;2023-04-06T10:23:53;99764.22;;;13.94;34.77
71195;BME280;58908;51.426;7.714;2023-04-06T10:26:21;99767.84;;;14.18;35.21
71195;BME280;58908;51.426;7.714;2023-04-06T10:28:49;99764.56;;;14.50;35.10
71195;BME280;58908;51.426;7.714;2023-04-06T10:31:23;99772.75;;;14.70;35.42
71195;BME280;58908;51.426;7.714;2023-04-06T10:33:54;99766.94;;;14.65;34.37
71195;BME280;58908;51.426;7.714;2023-04-06T10:36:22;99763.72;;;14.73;35.55
71195;BME280;58908;51.426;7.714;2023-04-06T10:38:53;99771.72;;;15.07;37.54
71195;BME280;58908;51.426;7.714;2023-04-06T10:41:19;99773.38;;;14.74;35.61
71195;BME280;58908;51.426;7.714;2023-04-06T10:43:54;99769.75;;;14.51;35.99
71195;BME280;58908;51.426;7.714;2023-04-06T10:46:25;99769.88;;;14.38;37.70
71195;BME280;58908;51.426;7.714;2023-04-06T10:48:52;99767.66;;;14.44;36.49
71195;BME280;58908;51.426;7.714;2023-04-06T10:51:18;99759.41;;;14.36;37.09
71195;BME280;58908;51.426;7.714;2023-04-06T10:53:45;99761.50;;;14.43;36.24
71195;BME280;58908;51.426;7.714;2023-04-06T10:56:16;99765.97;;;14.66;35.46
71195;BME280;58908;51.426;7.714;2023-04-06T10:58:46;99763.78;;;14.25;35.83
71195;BME280;58908;51.426;7.714;2023-04-06T11:01:13;99759.44;;;14.24;36.11
71195;BME280;58908;51.426;7.714;2023-04-06T11:03:45;99759.72;;;14.44;35.74
71195;BME280;58908;51.426;7.714;2023-04-06T11:06:17;99758.41;;;14.73;36.05
71195;BME280;58908;51.426;7.714;2023-04-06T11:08:43;99752.94;;;14.63;35.82
71195;BME280;58908;51.426;7.714;2023-04-06T11:11:11;99755.91;;;14.82;35.78
71195;BME280;58908;51.426;7.714;2023-04-06T11:13:40;99758.34;;;14.39;37.43
71195;BME280;58908;51.426;7.714;2023-04-06T11:16:07;99761.47;;;14.08;35.75
71195;BME280;58908;51.426;7.714;2023-04-06T11:18:37;99750.00;;;14.07;35.70
71195;BME280;58908;51.426;7.714;2023-04-06T11:21:05;99751.75;;;14.44;36.88
71195;BME280;58908;51.426;7.714;2023-04-06T11:23:31;99744.06;;;14.04;36.70
71195;BME280;58908;51.426;7.714;2023-04-06T11:25:58;99755.22;;;13.96;37.05
71195;BME280;58908;51.426;7.714;2023-04-06T11:28:24;99757.03;;;13.96;37.66
71195;BME280;58908;51.426;7.714;2023-04-06T11:30:50;99748.25;;;14.31;36.79
71195;BME280;58908;51.426;7.714;2023-04-06T11:33:20;99745.69;;;14.65;36.83
71195;BME280;58908;51.426;7.714;2023-04-06T11:35:46;99751.72;;;14.67;36.19
71195;BME280;58908;51.426;7.714;2023-04-06T11:38:14;99748.25;;;14.67;35.98
71195;BME280;58908;51.426;7.714;2023-04-06T11:40:40;99748.97;;;14.69;36.89
71195;BME280;58908;51.426;7.714;2023-04-06T11:43:06;99738.88;;;14.50;34.39
71195;BME280;58908;51.426;7.714;2023-04-06T11:45:39;99734.50;;;14.73;35.23
71195;BME280;58908;51.426;7.714;2023-04-06T11:48:05;99733.06;;;14.69;36.59
71195;BME280;58908;51.426;7.714;2023-04-06T11:50:32;99729.13;;;14.62;36.90
71195;BME280;58908;51.426;7.714;2023-04-06T11:52:59;99739.19;;;14.69;38.13
71195;BME280;58908;51.426;7.714;2023-04-06T11:55:27;99727.09;;;14.42;38.11
71195;BME280;58908;51.426;7.714;2023-04-06T11:57:54;99738.34;;;14.45;39.41
71195;BME280;58908;51.426;7.714;2023-04-06T12:00:20;99732.97;;;14.35;38.37
71195;BME280;58908;51.426;7.714;2023-04-06T12:02:47;99727.94;;;14.07;38.76
71195;BME280;58908;51.426;7.714;2023-04-06T12:05:13;99732.16;;;14.22;37.28
71195;BME280;58908;51.426;7.714;2023-04-06T12:07:40;99731.66;;;14.04;38.82
71195;BME280;58908;51.426;7.714;2023-04-06T12:10:07;99728.91;;;13.93;39.08
71195;BME280;58908;51.426;7.714;2023-04-06T12:12:34;99732.06;;;14.23;39.45
71195;BME280;58908;51.426;7.714;2023-04-06T12:15:00;99732.06;;;14.46;39.64
71195;BME280;58908;51.426;7.714;2023-04-06T12:17:27;99736.06;;;14.16;39.26
71195;BME280;58908;51.426;7.714;2023-04-06T12:19:53;99731.34;;;14.44;39.69
71195;BME280;58908;51.426;7.714;2023-04-06T12:22:19;99732.63;;;14.39;38.80
71195;BME280;58908;51.426;7.714;2023-04-06T12:24:45;99731.69;;;14.63;38.52
71195;BME280;58908;51.426;7.714;2023-04-06T12:27:12;99723.81;;;14.62;40.14
71195;BME280;58908;51.426;7.714;2023-04-06T12:29:40;99721.00;;;14.76;38.61
71195;BME280;58908;51.426;7.714;2023-04-06T12:32:06;99714.63;;;14.55;38.40
71195;BME280;58908;51.426;7.714;2023-04-06T12:34:33;99718.25;;;14.31;38.56
71195;BME280;58908;51.426;7.714;2023-04-06T12:36:59;99716.75;;;14.27;38.33
71195;BME280;58908;51.426;7.714;2023-04-06T12:39:26;99716.75;;;14.27;38.79
71195;BME280;58908;51.426;7.714;2023-04-06T12:41:53;99721.78;;;14.42;38.80
71195;BME280;58908;51.426;7.714;2023-04-06T12:44:20;99713.31;;;14.60;38.39
71195;BME280;58908;51.426;7.714;2023-04-06T12:46:47;99711.94;;;14.44;39.67
71195;BME280;58908;51.426;7.714;2023-04-06T12:49:15;99710.44;;;14.17;39.25
71195;BME280;58908;51.426;7.714;2023-04-06T12:51:43;99716.66;;;14.16;38.95
71195;BME280;58908;51.426;7.714;2023-04-06T12:54:10;99711.00;;;14.33;38.99